Time;durP1;ratioP1;P1;durP2;ratioP2;P2;SDS_P1;SDS_P2;PMS_P1;PMS_P2;Temp;Humidity;BMP_temperature;BMP_pressure;BME280_temperature;BME280_humidity;BME280_pressure;Samples;Min_cycle;Max_cycle;Signal;HPM_P1;HPM_P2
2023/07/23 00:00:16;;;;;;;44.65;11.73;;;;;;;24.92;88.28;100357.34;4934015;29;20063;-77
2023/07/23 00:02:41;;;;;;;28.30;10.50;;;;;;;25.01;90.85;100362.59;4934011;29;20035;-78
2023/07/23 00:05:07;;;;;;;36.05;11.18;;;;;;;25.00;88.51;100358.16;4934006;29;20028;-77
2023/07/23 00:07:33;;;;;;;28.08;10.05;;;;;;;25.07;88.87;100365.31;4933661;29;20412;-78
2023/07/23 00:09:58;;;;;;;28.13;9.55;;;;;;;25.15;88.20;100373.25;4933895;29;20106;-77
2023/07/23 00:12:23;;;;;;;32.90;9.02;;;;;;;25.19;87.26;100384.66;4932916;29;20031;-77
2023/07/23 00:14:49;;;;;;;30.10;10.63;;;;;;;25.34;89.04;100393.41;4934250;29;20251;-76
2023/07/23 00:17:14;;;;;;;33.88;11.55;;;;;;;25.37;88.22;100398.47;4934269;29;20035;-77
2023/07/23 00:19:40;;;;;;;22.70;9.55;;;;;;;25.40;87.34;100390.59;4934050;29;20039;-78
2023/07/23 00:22:05;;;;;;;32.67;10.50;;;;;;;25.50;86.09;100392.03;4933565;29;20393;-77
2023/07/23 00:24:30;;;;;;;33.92;10.57;;;;;;;25.57;86.23;100410.16;4933755;29;20020;-80
2023/07/23 00:26:56;;;;;;;25.55;11.40;;;;;;;25.58;87.45;100414.59;4934218;29;20063;-78
2023/07/23 00:29:21;;;;;;;32.60;12.88;;;;;;;25.74;93.02;100427.78;4933484;29;20079;-77
2023/07/23 00:31:47;;;;;;;41.20;14.57;;;;;;;25.72;95.57;100435.41;4933782;29;20042;-79
2023/07/23 00:34:12;;;;;;;36.13;14.38;;;;;;;25.78;98.37;100437.25;4933441;29;20086;-77
2023/07/23 00:36:38;;;;;;;40.63;15.13;;;;;;;25.82;100.00;100441.25;4933456;29;20024;-78
2023/07/23 00:39:05;;;;;;;29.42;14.88;;;;;;;25.83;100.00;100437.44;4934031;29;20036;-77
2023/07/23 00:41:30;;;;;;;24.85;17.63;;;;;;;25.88;100.00;100450.50;4933901;29;21040;-77
2023/07/23 00:43:56;;;;;;;34.67;16.15;;;;;;;25.90;100.00;100454.72;4933530;29;20090;-77
2023/07/23 00:46:21;;;;;;;37.50;18.23;;;;;;;25.92;100.00;100457.25;4933474;29;20031;-77
2023/07/23 00:48:47;;;;;;;34.05;20.50;;;;;;;25.93;100.00;100458.97;4933669;29;20036;-77
2023/07/23 00:51:12;;;;;;;38.80;19.38;;;;;;;25.91;100.00;100461.94;4932900;29;20424;-78
2023/07/23 00:53:38;;;;;;;37.65;20.90;;;;;;;25.89;100.00;100479.78;4933588;29;20101;-77
2023/07/23 00:56:04;;;;;;;37.83;22.10;;;;;;;25.90;100.00;100492.50;4932851;29;20480;-78
2023/07/23 00:58:29;;;;;;;41.58;20.90;;;;;;;25.87;100.00;100499.28;4933251;29;20484;-77
2023/07/23 01:00:55;;;;;;;45.38;22.08;;;;;;;25.77;100.00;100507.25;4932631;29;20048;-76
2023/07/23 01:03:22;;;;;;;69.25;21.20;;;;;;;25.80;100.00;100527.97;4932917;29;20054;-77
2023/07/23 01:05:48;;;;;;;45.83;22.27;;;;;;;25.73;100.00;100533.53;4932690;29;20472;-77
2023/07/23 01:08:14;;;;;;;39.47;20.45;;;;;;;25.70;100.00;100535.91;4932672;29;20032;-78
2023/07/23 01:10:40;;;;;;;43.10;18.02;;;;;;;25.57;100.00;100536.84;4933005;29;20042;-77
2023/07/23 01:13:06;;;;;;;38.58;16.45;;;;;;;25.40;100.00;100543.97;4931675;29;20504;-77
2023/07/23 01:15:33;;;;;;;49.55;18.75;;;;;;;25.24;99.84;100548.09;4932982;29;20468;-79
2023/07/23 01:18:01;;;;;;;41.65;16.73;;;;;;;25.13;100.00;100539.72;4932464;29;20047;-77
2023/07/23 01:20:27;;;;;;;41.67;15.55;;;;;;;25.13;100.00;100547.97;4932661;29;20098;-80
2023/07/23 01:22:52;;;;;;;33.58;13.23;;;;;;;24.96;96.93;100544.88;4932667;29;20032;-78
2023/07/23 01:25:18;;;;;;;33.00;12.38;;;;;;;24.88;96.03;100535.00;4932533;29;20027;-80
2023/07/23 01:27:43;;;;;;;34.75;11.18;;;;;;;24.85;96.56;100526.31;4932542;29;20030;-77
2023/07/23 01:30:10;;;;;;;26.02;10.73;;;;;;;24.83;94.71;100529.28;4932546;29;20028;-78
2023/07/23 01:32:37;;;;;;;30.90;12.07;;;;;;;24.83;95.60;100489.94;4931118;29;20393;-76
2023/07/23 01:35:09;;;;;;;41.13;13.52;;;;;;;24.90;96.96;100463.22;4932077;29;20122;-77
2023/07/23 01:37:35;;;;;;;29.02;13.73;;;;;;;24.96;99.27;100461.47;4931993;29;20467;-77
2023/07/23 01:40:01;;;;;;;26.05;12.30;;;;;;;24.97;100.00;100441.16;4932383;29;20528;-76
2023/07/23 01:42:27;;;;;;;40.97;14.55;;;;;;;24.84;100.00;100396.16;4932066;29;20019;-76
2023/07/23 01:44:52;;;;;;;32.45;13.20;;;;;;;24.85;100.00;100331.00;4931929;29;20036;-78
2023/07/23 01:47:17;;;;;;;33.75;13.13;;;;;;;24.75;100.00;100339.72;4932279;29;20389;-77
2023/07/23 01:49:43;;;;;;;27.48;12.95;;;;;;;24.80;100.00;100361.88;4931978;29;20036;-76
2023/07/23 01:52:08;;;;;;;40.08;12.90;;;;;;;24.76;100.00;100346.91;4931980;29;20404;-77
2023/07/23 01:54:34;;;;;;;24.90;11.13;;;;;;;24.69;100.00;100367.25;4932144;29;20709;-77
2023/07/23 01:57:00;;;;;;;24.50;12.35;;;;;;;24.60;100.00;100385.94;4931687;29;20492;-77
2023/07/23 01:59:25;;;;;;;46.28;15.70;;;;;;;24.57;100.00;100397.38;4931671;29;20027;-76
2023/07/23 02:01:50;;;;;;;41.33;11.30;;;;;;;24.66;100.00;100403.47;4932391;29;20063;-79
2023/07/23 02:04:16;;;;;;;27.38;10.57;;;;;;;24.67;100.00;100422.50;4931679;29;21237;-77
2023/07/23 02:06:41;;;;;;;21.77;10.15;;;;;;;24.67;100.00;100424.41;4931661;29;20409;-78
2023/07/23 02:09:07;;;;;;;28.75;9.85;;;;;;;24.68;100.00;100420.56;4932000;29;21217;-78
2023/07/23 02:11:32;;;;;;;19.30;8.88;;;;;;;24.71;100.00;100429.22;4931823;29;20036;-77
2023/07/23 02:13:57;;;;;;;22.45;8.95;;;;;;;24.60;100.00;100431.84;4931994;29;20027;-77
2023/07/23 02:16:23;;;;;;;20.92;9.77;;;;;;;24.59;100.00;100439.25;4931779;29;20040;-78
2023/07/23 02:18:49;;;;;;;17.35;8.75;;;;;;;24.66;100.00;100444.72;4931712;29;20028;-77
2023/07/23 02:21:14;;;;;;;21.77;8.77;;;;;;;24.61;100.00;100448.16;4930891;29;20038;-77
2023/07/23 02:23:40;;;;;;;22.30;8.63;;;;;;;24.58;100.00;100456.84;4931261;29;20063;-78
2023/07/23 02:26:05;;;;;;;31.25;9.90;;;;;;;24.58;100.00;100453.25;4921534;29;20024;-78
2023/07/23 02:28:30;;;;;;;19.50;8.45;;;;;;;24.50;100.00;100458.97;4912536;29;20028;-77
2023/07/23 02:30:57;;;;;;;20.42;7.57;;;;;;;24.46;100.00;100455.00;4929361;29;20118;-79
2023/07/23 02:33:22;;;;;;;20.98;9.23;;;;;;;24.52;100.00;100457.72;4929145;28;20039;-79
2023/07/23 02:35:48;;;;;;;21.20;8.35;;;;;;;24.44;100.00;100463.44;4928530;28;20868;-79
2023/07/23 02:38:14;;;;;;;20.80;8.23;;;;;;;24.37;100.00;100468.97;4929058;29;20043;-79
2023/07/23 02:40:39;;;;;;;18.83;7.38;;;;;;;24.28;100.00;100475.78;4928915;29;20048;-78
2023/07/23 02:43:05;;;;;;;23.95;7.90;;;;;;;24.36;100.00;100488.44;4912604;29;20043;-78
2023/07/23 02:45:30;;;;;;;25.20;9.10;;;;;;;24.45;100.00;100487.13;4909743;29;20079;-79
2023/07/23 02:47:56;;;;;;;27.27;8.80;;;;;;;24.45;100.00;100502.78;4910056;29;20032;-83
2023/07/23 02:50:22;;;;;;;16.42;7.85;;;;;;;24.44;100.00;100512.94;4909917;29;20032;-78
2023/07/23 02:52:48;;;;;;;31.00;9.68;;;;;;;24.44;98.84;100514.84;4910115;29;20177;-80
2023/07/23 02:55:13;;;;;;;39.75;9.90;;;;;;;24.38;99.96;100519.31;4911570;29;20044;-78
2023/07/23 02:57:38;;;;;;;20.48;8.57;;;;;;;24.34;99.54;100527.13;4918627;29;20103;-78
2023/07/23 03:00:04;;;;;;;20.13;8.90;;;;;;;24.33;100.00;100527.38;4929816;29;20051;-79
2023/07/23 03:02:30;;;;;;;22.92;8.75;;;;;;;24.22;100.00;100514.28;4929479;29;20039;-78
2023/07/23 03:04:55;;;;;;;21.75;8.38;;;;;;;24.25;99.31;100531.19;4931323;29;20042;-77
2023/07/23 03:07:21;;;;;;;16.75;8.32;;;;;;;24.24;98.04;100523.19;4932111;29;20054;-79
2023/07/23 03:09:46;;;;;;;19.05;7.28;;;;;;;24.22;98.40;100522.53;4929847;29;20489;-78
2023/07/23 03:12:12;;;;;;;27.30;7.63;;;;;;;24.20;97.81;100516.41;4931076;29;20035;-79
2023/07/23 03:14:37;;;;;;;32.03;9.40;;;;;;;24.31;96.15;100535.00;4932455;29;20470;-77
2023/07/23 03:17:03;;;;;;;24.40;9.73;;;;;;;24.32;93.89;100555.91;4948521;28;20027;-77
2023/07/23 03:19:28;;;;;;;23.83;8.63;;;;;;;24.33;93.04;100565.84;4950731;28;20104;-79
2023/07/23 03:21:53;;;;;;;16.08;8.30;;;;;;;24.38;93.20;100588.88;4935986;28;20042;-80
2023/07/23 03:24:19;;;;;;;30.40;10.00;;;;;;;24.42;91.33;100597.56;4952024;28;20035;-78
2023/07/23 03:26:45;;;;;;;26.30;9.05;;;;;;;24.46;91.06;100615.31;4951476;28;20122;-80
2023/07/23 03:29:10;;;;;;;24.83;10.23;;;;;;;24.51;90.59;100604.50;4950630;28;20042;-78
2023/07/23 03:31:36;;;;;;;26.05;8.75;;;;;;;24.53;91.07;100588.63;4950959;28;20023;-78
2023/07/23 03:34:01;;;;;;;29.13;9.82;;;;;;;24.61;89.41;100577.41;4951100;28;20031;-80
2023/07/23 03:36:27;;;;;;;28.83;8.93;;;;;;;24.64;86.72;100560.47;4950548;28;20031;-79
2023/07/23 03:38:52;;;;;;;28.42;8.95;;;;;;;24.64;89.34;100519.22;4951307;28;20054;-79
2023/07/23 03:41:18;;;;;;;23.55;8.55;;;;;;;24.66;90.82;100510.72;4951339;28;20070;-79
2023/07/23 03:43:44;;;;;;;23.10;7.55;;;;;;;24.65;91.81;100498.88;4951019;28;20099;-80
2023/07/23 03:46:09;;;;;;;28.20;9.63;;;;;;;24.62;92.19;100490.22;4950370;28;20031;-79
2023/07/23 03:48:34;;;;;;;27.70;8.93;;;;;;;24.54;89.08;100480.31;4952668;28;20502;-80
2023/07/23 03:51:00;;;;;;;22.80;9.07;;;;;;;24.48;87.99;100492.19;4953936;28;20031;-77
2023/07/23 03:53:25;;;;;;;56.70;10.95;;;;;;;24.53;89.25;100499.78;4938109;28;20404;-77
2023/07/23 03:55:51;;;;;;;27.95;9.00;;;;;;;24.56;89.91;100516.69;4935698;29;20023;-77
2023/07/23 03:58:16;;;;;;;36.58;10.95;;;;;;;24.64;90.58;100524.72;4939742;29;20099;-77
2023/07/23 04:00:42;;;;;;;31.75;10.95;;;;;;;24.58;92.40;100511.84;4936974;29;20052;-79
2023/07/23 04:03:07;;;;;;;29.05;9.77;;;;;;;24.72;91.54;100538.22;4944603;29;20041;-81
2023/07/23 04:05:33;;;;;;;19.20;9.65;;;;;;;24.81;91.03;100544.31;4958625;29;20095;-81
2023/07/23 04:07:58;;;;;;;43.97;10.27;;;;;;;24.86;91.74;100534.34;4953178;29;20043;-79
2023/07/23 04:10:23;;;;;;;34.35;10.95;;;;;;;24.89;91.96;100533.91;4946704;29;20027;-78
2023/07/23 04:12:49;;;;;;;27.20;10.70;;;;;;;24.88;92.36;100526.75;4941062;29;20039;-78
2023/07/23 04:15:14;;;;;;;33.90;10.48;;;;;;;25.02;92.57;100532.13;4942197;29;20103;-78
2023/07/23 04:17:40;;;;;;;38.30;10.95;;;;;;;25.07;91.00;100529.59;4938415;29;20043;-79
2023/07/23 04:20:06;;;;;;;35.80;11.15;;;;;;;25.02;91.78;100515.63;4935880;29;20019;-78
2023/07/23 04:22:31;;;;;;;26.42;10.60;;;;;;;25.02;91.19;100504.63;4935443;29;20035;-80
2023/07/23 04:24:56;;;;;;;33.33;10.95;;;;;;;25.06;90.86;100508.63;4935285;29;20484;-79
2023/07/23 04:27:22;;;;;;;29.42;10.65;;;;;;;25.06;92.04;100511.38;4934683;29;20473;-79
2023/07/23 04:29:47;;;;;;;38.80;11.57;;;;;;;25.10;91.93;100512.63;4934035;29;20094;-79
2023/07/23 04:32:13;;;;;;;29.73;12.95;;;;;;;25.09;91.23;100506.28;4933833;29;20090;-77
2023/07/23 04:34:39;;;;;;;36.75;11.77;;;;;;;25.22;94.21;100510.84;4933937;29;20051;-79
2023/07/23 04:37:06;;;;;;;29.77;11.98;;;;;;;25.11;92.75;100514.28;4934053;29;20110;-78
2023/07/23 04:39:32;;;;;;;42.85;12.25;;;;;;;25.09;92.59;100508.19;4933430;29;20430;-79
2023/07/23 04:41:57;;;;;;;50.85;13.68;;;;;;;25.08;92.76;100496.31;4933599;29;20032;-77
2023/07/23 04:44:23;;;;;;;39.60;14.20;;;;;;;25.14;93.04;100487.16;4933717;29;20485;-80
2023/07/23 04:46:48;;;;;;;30.52;12.10;;;;;;;25.18;92.75;100504.09;4934793;29;20043;-77
2023/07/23 04:49:14;;;;;;;30.38;12.25;;;;;;;25.17;91.92;100502.41;4933934;29;20047;-77
2023/07/23 04:51:39;;;;;;;43.45;14.95;;;;;;;25.23;92.75;100507.00;4931447;29;20403;-80
2023/07/23 04:54:05;;;;;;;34.25;14.00;;;;;;;25.34;93.67;100503.56;4922294;29;20034;-78
2023/07/23 04:56:30;;;;;;;29.30;14.20;;;;;;;25.39;94.01;100498.22;4930732;29;20571;-77
2023/07/23 04:58:56;;;;;;;32.67;15.15;;;;;;;25.55;94.55;100494.94;4912669;29;20040;-77
2023/07/23 05:01:21;;;;;;;34.70;15.07;;;;;;;25.65;94.04;100495.28;4925165;29;20190;-77
2023/07/23 05:03:47;;;;;;;39.88;15.90;;;;;;;25.72;94.89;100479.50;4933021;29;20051;-79
2023/07/23 05:06:12;;;;;;;39.28;12.68;;;;;;;25.81;93.79;100500.19;4934584;29;20047;-77
2023/07/23 05:08:38;;;;;;;49.28;14.73;;;;;;;25.81;93.47;100497.44;4937103;29;20028;-79
2023/07/23 05:11:04;;;;;;;39.13;12.63;;;;;;;25.91;94.46;100489.50;4932928;29;20059;-78
2023/07/23 05:13:31;;;;;;;40.53;14.32;;;;;;;25.90;92.55;100487.78;4932918;29;20027;-80
2023/07/23 05:16:02;;;;;;;34.85;12.02;;;;;;;25.85;90.88;100486.78;4932826;29;20420;-78
2023/07/23 05:18:28;;;;;;;46.00;12.57;;;;;;;25.98;92.99;100494.94;4933348;29;20019;-78
2023/07/23 05:20:53;;;;;;;28.13;11.48;;;;;;;25.91;91.46;100497.75;4923792;29;20027;-77
2023/07/23 05:23:19;;;;;;;37.67;11.65;;;;;;;25.90;89.75;100512.59;4914152;29;20024;-77
2023/07/23 05:25:44;;;;;;;23.65;10.30;;;;;;;25.79;86.91;100502.34;4913889;29;20115;-77
2023/07/23 05:28:10;;;;;;;33.42;10.95;;;;;;;25.81;88.37;100507.59;4913850;29;20039;-77
2023/07/23 05:30:36;;;;;;;31.23;10.98;;;;;;;25.75;89.43;100495.56;4913554;29;20040;-79
2023/07/23 05:33:01;;;;;;;46.88;12.98;;;;;;;25.75;91.85;100495.56;4923223;29;20023;-76
2023/07/23 05:35:27;;;;;;;27.60;11.43;;;;;;;25.63;90.18;100500.16;4932789;29;20063;-80
2023/07/23 05:37:52;;;;;;;37.72;11.82;;;;;;;25.67;91.19;100489.53;4932824;29;20416;-77
2023/07/23 05:40:17;;;;;;;27.05;11.20;;;;;;;25.72;92.63;100490.53;4932252;29;20484;-76
2023/07/23 05:42:43;;;;;;;34.50;11.93;;;;;;;25.75;92.17;100494.72;4932426;29;20039;-79
2023/07/23 05:45:09;;;;;;;26.10;11.07;;;;;;;25.72;92.06;100485.00;4932344;29;20035;-78
2023/07/23 05:47:34;;;;;;;35.15;12.32;;;;;;;25.71;91.67;100477.84;4932882;29;20024;-77
2023/07/23 05:50:00;;;;;;;38.47;11.82;;;;;;;25.73;91.57;100477.59;4933734;29;20051;-76
2023/07/23 05:52:26;;;;;;;33.35;11.20;;;;;;;25.81;93.23;100472.63;4932355;29;20040;-76
2023/07/23 05:54:51;;;;;;;27.23;11.70;;;;;;;25.78;91.31;100478.59;4914172;29;20040;-76
2023/07/23 05:57:16;;;;;;;25.17;9.85;;;;;;;25.77;90.58;100470.56;4932447;29;20111;-78
2023/07/23 05:59:42;;;;;;;32.63;11.82;;;;;;;25.81;90.43;100478.13;4932053;29;20032;-77
2023/07/23 06:02:08;;;;;;;26.75;11.10;;;;;;;25.90;91.72;100482.28;4931962;29;20051;-78
2023/07/23 06:04:34;;;;;;;25.42;10.43;;;;;;;25.90;89.43;100482.28;4931535;29;20035;-78
2023/07/23 06:07:00;;;;;;;25.83;10.48;;;;;;;25.96;89.84;100475.84;4932194;29;20047;-76
2023/07/23 06:09:26;;;;;;;25.27;10.65;;;;;;;26.07;88.92;100476.19;4922677;29;20112;-75
2023/07/23 06:11:53;;;;;;;25.67;11.52;;;;;;;26.16;90.24;100478.44;4912354;29;20043;-76
2023/07/23 06:14:18;;;;;;;29.88;10.13;;;;;;;26.12;88.87;100477.16;4912316;29;20036;-78
2023/07/23 06:16:44;;;;;;;26.15;9.90;;;;;;;26.20;87.89;100481.56;4912635;29;20039;-77
2023/07/23 06:19:09;;;;;;;32.78;11.45;;;;;;;26.30;89.40;100481.84;4912422;29;20036;-77
2023/07/23 06:21:35;;;;;;;32.33;11.65;;;;;;;26.40;88.42;100482.16;4912668;29;20504;-80
2023/07/23 06:24:00;;;;;;;20.13;9.75;;;;;;;26.45;86.36;100479.56;4930726;29;20024;-77
2023/07/23 06:26:25;;;;;;;18.42;11.13;;;;;;;26.63;86.52;100487.81;4927461;29;20035;-77
2023/07/23 06:28:51;;;;;;;22.67;10.07;;;;;;;26.80;87.50;100477.00;4912403;29;20027;-78
2023/07/23 06:31:16;;;;;;;30.35;10.40;;;;;;;26.85;83.88;100466.91;4913525;29;20039;-78
2023/07/23 06:33:42;;;;;;;23.90;9.77;;;;;;;26.98;82.66;100480.53;4913966;29;20051;-79
2023/07/23 06:36:07;;;;;;;21.52;9.27;;;;;;;27.06;84.03;100481.28;4912582;29;20119;-77
2023/07/23 06:38:32;;;;;;;40.80;10.68;;;;;;;27.14;83.57;100489.22;4913135;29;20079;-77
2023/07/23 06:40:58;;;;;;;34.80;10.82;;;;;;;27.17;82.45;100478.56;4921852;29;20023;-80
2023/07/23 06:43:23;;;;;;;23.92;10.85;;;;;;;27.33;83.47;100488.06;4931547;29;20035;-77
2023/07/23 06:45:50;;;;;;;30.63;11.48;;;;;;;27.36;79.87;100476.53;4931665;29;20031;-80
2023/07/23 06:48:18;;;;;;;20.60;9.73;;;;;;;27.48;80.56;100470.00;4931574;29;20027;-78
2023/07/23 06:50:45;;;;;;;26.20;11.55;;;;;;;27.51;80.86;100479.72;4931649;29;20031;-79
2023/07/23 06:53:10;;;;;;;27.80;9.32;;;;;;;27.59;76.46;100476.59;4931058;29;20563;-78
2023/07/23 06:56:06;;;;;;;23.58;8.52;;;;;;;27.67;76.41;100479.03;4930948;29;20118;-79
2023/07/23 06:58:34;;;;;;;23.48;11.25;;;;;;;27.68;77.36;100497.25;4931402;29;20023;-79
2023/07/23 07:01:00;;;;;;;28.95;12.07;;;;;;;27.75;79.76;100489.69;4931248;29;20146;-79
2023/07/23 07:03:26;;;;;;;23.13;10.13;;;;;;;27.83;77.58;100492.09;4931043;29;20067;-78
2023/07/23 07:05:52;;;;;;;23.17;9.88;;;;;;;27.92;75.20;100492.59;4930181;29;20624;-78
2023/07/23 07:08:17;;;;;;;24.38;9.70;;;;;;;28.03;76.52;100492.56;4931305;29;20028;-79
2023/07/23 07:10:43;;;;;;;22.88;8.68;;;;;;;28.07;72.04;100488.25;4930879;29;20039;-81
2023/07/23 07:13:08;;;;;;;33.60;9.60;;;;;;;28.16;71.85;100488.75;4930555;29;20027;-79
2023/07/23 07:15:34;;;;;;;21.92;9.85;;;;;;;28.27;72.35;100496.19;4930021;29;20039;-81
2023/07/23 07:17:59;;;;;;;23.38;9.27;;;;;;;28.26;73.17;100493.63;4930818;29;20076;-78
2023/07/23 07:20:25;;;;;;;23.10;9.57;;;;;;;28.34;71.67;100501.56;4930889;29;20024;-78
2023/07/23 07:22:51;;;;;;;15.45;8.55;;;;;;;28.48;70.81;100500.22;4933226;29;20023;-79
2023/07/23 07:25:16;;;;;;;25.17;9.48;;;;;;;28.56;72.58;100510.91;4934587;29;20024;-82
2023/07/23 07:27:42;;;;;;;21.85;9.30;;;;;;;28.60;68.50;100517.63;4934670;29;20035;-80
2023/07/23 07:30:07;;;;;;;25.23;9.75;;;;;;;28.56;67.88;100506.19;4934742;29;20031;-81
2023/07/23 07:32:33;;;;;;;24.80;8.88;;;;;;;28.51;64.85;100505.25;4934809;29;20038;-80
2023/07/23 07:34:58;;;;;;;16.83;7.55;;;;;;;28.54;67.93;100497.31;4932153;29;20107;-80
2023/07/23 07:37:25;;;;;;;18.83;8.73;;;;;;;28.60;64.66;100506.53;4915670;29;20028;-81
2023/07/23 07:39:51;;;;;;;37.97;10.65;;;;;;;28.72;64.45;100509.28;4915661;29;20091;-80
2023/07/23 07:42:17;;;;;;;20.23;8.02;;;;;;;28.72;63.99;100499.06;4915786;29;20028;-79
2023/07/23 07:44:42;;;;;;;29.88;9.55;;;;;;;28.75;65.59;100501.34;4916266;29;20040;-81
2023/07/23 07:47:08;;;;;;;18.63;8.50;;;;;;;28.74;64.76;100508.00;4922733;29;20024;-85
2023/07/23 07:49:33;;;;;;;18.98;8.68;;;;;;;28.82;63.54;100507.59;4934425;29;20032;-82
2023/07/23 07:51:59;;;;;;;33.25;8.57;;;;;;;28.82;62.58;100510.34;4934212;29;20134;-82
2023/07/23 07:54:24;;;;;;;17.73;7.90;;;;;;;28.99;63.54;100516.78;4933035;29;20036;-82
2023/07/23 07:56:51;;;;;;;28.65;8.68;;;;;;;29.08;63.68;100520.81;4934912;29;20031;-83
2023/07/23 07:59:17;;;;;;;17.90;8.20;;;;;;;29.18;65.63;100518.25;4935519;29;20035;-81
2023/07/23 08:01:43;;;;;;;19.27;7.50;;;;;;;29.22;61.92;100514.97;4934336;29;20106;-84
2023/07/23 08:04:10;;;;;;;12.40;7.05;;;;;;;29.14;59.67;100511.50;4935751;28;20032;-84
2023/07/23 08:06:37;;;;;;;17.45;7.78;;;;;;;29.28;60.76;100530.63;4938523;29;20036;-82
2023/07/23 08:09:04;;;;;;;15.15;7.50;;;;;;;29.33;58.46;100525.16;4947719;29;20485;-88
2023/07/23 08:11:31;;;;;;;16.35;7.03;;;;;;;29.19;62.03;100499.69;4941606;29;20035;-85
2023/07/23 08:13:57;;;;;;;17.90;8.30;;;;;;;29.34;62.55;100524.09;4933740;29;20067;-82
2023/07/23 08:16:22;;;;;;;21.23;8.30;;;;;;;29.44;59.38;100521.50;4917709;29;20032;-83
2023/07/23 08:18:48;;;;;;;20.50;7.95;;;;;;;29.47;60.15;100523.78;4934858;29;20086;-83
2023/07/23 08:21:14;;;;;;;16.77;7.70;;;;;;;29.47;61.52;100523.78;4935713;29;20031;-83
2023/07/23 08:23:40;;;;;;;24.20;7.63;;;;;;;29.58;59.89;100531.16;4937355;29;20484;-86
2023/07/23 08:26:07;;;;;;;23.88;7.38;;;;;;;29.54;59.96;100518.91;4937499;29;20128;-86
2023/07/23 08:28:37;;;;;;;19.10;7.90;;;;;;;29.59;59.17;100524.53;4939037;29;20059;-82
2023/07/23 08:31:03;;;;;;;15.23;7.10;;;;;;;29.66;59.44;100545.44;4936536;29;20046;-82
2023/07/23 08:33:31;;;;;;;18.52;7.32;;;;;;;29.60;60.37;100529.81;4952948;29;20032;-81
2023/07/23 08:35:58;;;;;;;18.77;8.65;;;;;;;29.66;60.57;100530.75;4943062;29;20031;-83
2023/07/23 08:38:24;;;;;;;21.00;7.72;;;;;;;29.69;59.86;100527.50;4938068;29;20028;-86
2023/07/23 08:41:03;;;;;;;16.33;8.02;;;;;;;29.67;59.32;100519.41;4940230;29;20028;-85
2023/07/23 08:44:04;;;;;;;12.70;7.50;;;;;;;29.87;57.64;100535.56;4941462;29;20035;-82
2023/07/23 08:46:29;;;;;;;16.10;7.82;;;;;;;29.85;57.70;100534.13;4867555;29;20855;-88
2023/07/23 08:49:15;;;;;;;16.42;9.00;;;;;;;29.94;59.02;100541.75;4882243;29;20037;-92
2023/07/23 08:51:43;;;;;;;18.85;8.23;;;;;;;30.12;58.49;100547.03;4863477;29;20030;-92
2023/07/23 08:54:12;;;;;;;22.67;8.10;;;;;;;30.11;56.39;100520.41;4864397;29;20053;-85
2023/07/23 08:56:40;;;;;;;23.33;7.22;;;;;;;30.30;56.06;100534.81;4862752;29;20045;-88
2023/07/23 08:59:06;;;;;;;14.70;6.55;;;;;;;30.26;55.63;100502.28;4847231;29;20034;-89
2023/07/23 09:01:35;;;;;;;17.45;7.47;;;;;;;30.42;55.30;100516.16;4846661;29;20057;-87
2023/07/23 09:04:01;;;;;;;16.30;8.10;;;;;;;30.52;55.34;100499.59;4841976;29;20542;-88
2023/07/23 09:06:30;;;;;;;19.88;7.65;;;;;;;30.74;55.70;100510.69;4841654;29;20129;-92
2023/07/23 09:09:07;;;;;;;16.67;6.60;;;;;;;30.87;54.90;100543.63;4842062;29;20102;-89
2023/07/23 09:11:34;;;;;;;29.25;7.70;;;;;;;30.93;52.84;100563.97;4841021;29;20034;-89
2023/07/23 09:14:10;;;;;;;21.27;7.88;;;;;;;30.84;53.98;100557.19;4841321;29;20852;-89
2023/07/23 09:16:38;;;;;;;15.20;6.72;;;;;;;30.99;53.47;100580.47;4841108;29;20065;-94
2023/07/23 09:19:04;;;;;;;24.50;7.95;;;;;;;31.10;53.21;100567.56;4810598;29;20045;-90
2023/07/23 09:21:29;;;;;;;17.17;8.10;;;;;;;31.14;52.75;100563.13;4881915;29;20463;-90
2023/07/23 09:23:57;;;;;;;16.17;7.78;;;;;;;31.26;52.84;100566.59;4895723;29;20079;-90
2023/07/23 09:26:27;;;;;;;15.13;7.32;;;;;;;31.27;52.93;100555.22;4879417;29;20494;-91
2023/07/23 09:28:57;;;;;;;12.65;7.70;;;;;;;31.34;51.87;100552.25;4906754;29;20414;-91
2023/07/23 09:31:28;;;;;;;15.57;6.30;;;;;;;31.39;51.42;100554.22;4916610;29;20028;-90
2023/07/23 09:33:58;;;;;;;13.10;7.32;;;;;;;31.13;51.13;100555.91;4932143;28;20032;-92
2023/07/23 09:36:25;;;;;;;9.50;7.15;;;;;;;31.08;51.90;100587.25;4916466;29;20036;-92
2023/07/23 09:39:01;;;;;;;21.13;6.95;;;;;;;30.94;51.80;100585.97;4913996;29;20024;-91
2023/07/23 09:41:29;;;;;;;23.15;7.60;;;;;;;31.01;51.72;100599.69;4929791;28;20036;-92
2023/07/23 09:44:07;;;;;;;17.17;7.03;;;;;;;31.16;52.15;100586.78;4917597;29;20027;-92
2023/07/23 09:46:33;;;;;;;15.50;7.25;;;;;;;31.24;52.01;100589.09;4915527;29;20119;-91
2023/07/23 09:48:59;;;;;;;12.65;7.18;;;;;;;31.17;52.55;100584.84;4929524;29;20055;-91
2023/07/23 09:51:25;;;;;;;24.50;8.63;;;;;;;31.05;52.77;100576.66;4915894;29;20141;-90
2023/07/23 09:53:51;;;;;;;18.85;8.18;;;;;;;31.04;52.48;100608.31;4915326;29;20088;-90
2023/07/23 09:56:19;;;;;;;19.23;7.63;;;;;;;31.04;52.96;100591.63;4915364;29;20083;-91
2023/07/23 09:58:49;;;;;;;16.30;7.65;;;;;;;31.00;52.58;100579.38;4923351;29;20036;-91
2023/07/23 10:01:16;;;;;;;14.88;7.60;;;;;;;31.05;52.67;100589.69;4925477;29;20054;-91
2023/07/23 10:03:44;;;;;;;11.90;7.45;;;;;;;30.94;52.82;100587.88;4934222;29;20603;-90
2023/07/23 10:06:11;;;;;;;19.98;8.57;;;;;;;30.84;53.23;100583.03;4934450;29;20035;-91
2023/07/23 10:08:42;;;;;;;18.58;9.35;;;;;;;30.89;53.27;100594.19;4935259;29;20441;-92
2023/07/23 10:11:09;;;;;;;15.75;7.97;;;;;;;30.94;52.21;100597.09;4917140;29;20032;-93
2023/07/23 10:13:36;;;;;;;18.60;9.13;;;;;;;31.02;52.52;100585.50;4935910;29;20024;-91
2023/07/23 10:16:05;;;;;;;14.52;8.82;;;;;;;31.13;52.36;100578.16;4935201;28;20063;-92
2023/07/23 10:18:33;;;;;;;21.63;8.25;;;;;;;31.24;50.94;100586.31;4938460;29;20028;-92
2023/07/23 10:20:59;;;;;;;17.52;7.53;;;;;;;31.22;50.79;100599.63;4933529;29;20032;-91
2023/07/23 10:23:24;;;;;;;20.67;8.00;;;;;;;31.12;50.45;100593.97;4935230;29;20034;-93
2023/07/23 10:26:20;;;;;;;18.98;7.65;;;;;;;31.21;50.47;100597.13;4935408;29;20036;-90
2023/07/23 10:28:47;;;;;;;22.95;8.82;;;;;;;31.20;49.93;100589.88;4917286;29;20118;-93
2023/07/23 10:31:35;;;;;;;14.40;8.15;;;;;;;31.27;49.49;100596.06;4935970;29;20171;-89
2023/07/23 10:34:01;;;;;;;16.92;7.90;;;;;;;31.20;49.74;100589.88;4932712;28;20083;-91
2023/07/23 10:36:26;;;;;;;16.98;6.90;;;;;;;31.27;49.31;100601.63;4938860;29;20039;-93
2023/07/23 10:39:15;;;;;;;17.42;7.00;;;;;;;31.40;49.55;100594.81;4950252;29;20034;-93
2023/07/23 10:42:07;;;;;;;11.65;7.10;;;;;;;31.56;48.03;100596.69;4875984;29;20049;-90
2023/07/23 10:44:32;;;;;;;20.33;7.03;;;;;;;31.57;47.25;100570.53;4837459;29;20054;-90
2023/07/23 10:46:59;;;;;;;13.88;7.35;;;;;;;31.71;46.37;100585.72;4824395;29;20050;-91
2023/07/23 10:49:29;;;;;;;15.20;6.85;;;;;;;31.80;46.41;100573.81;4821289;29;20055;-92
2023/07/23 10:52:12;;;;;;;10.82;5.90;;;;;;;31.86;45.61;100587.78;4823010;29;20510;-91
2023/07/23 10:54:37;;;;;;;18.00;6.80;;;;;;;32.03;46.38;100611.59;4826677;29;20090;-90
2023/07/23 10:57:05;;;;;;;10.43;5.82;;;;;;;31.96;45.46;100579.50;4823343;29;20042;-92
2023/07/23 10:59:30;;;;;;;11.68;6.20;;;;;;;32.13;45.55;100564.38;4825859;29;20071;-92
2023/07/23 11:01:56;;;;;;;18.13;6.88;;;;;;;32.39;44.51;100579.25;4824009;29;20515;-91
2023/07/23 11:04:26;;;;;;;11.65;6.03;;;;;;;32.57;44.29;100600.31;4821258;29;20029;-91
2023/07/23 11:07:00;;;;;;;7.40;5.25;;;;;;;32.70;44.08;100605.38;4833371;29;20055;-89
2023/07/23 11:09:28;;;;;;;10.48;5.70;;;;;;;32.87;44.26;100580.94;4826955;29;20058;-90